createdAt,value
2022-12-12T00:00:27.778Z,-6.90
2022-12-12T00:02:54.930Z,-6.90
2022-12-12T00:05:21.803Z,-7.00
2022-12-12T00:07:48.621Z,-7.00
2022-12-12T00:10:15.424Z,-6.90
2022-12-12T00:12:42.180Z,-6.90
2022-12-12T00:15:09.566Z,-6.90
2022-12-12T00:17:36.483Z,-6.90
2022-12-12T00:20:03.810Z,-6.90
2022-12-12T00:22:31.773Z,-5.80
2022-12-12T00:24:58.624Z,-6.90
2022-12-12T00:27:25.448Z,-6.90
2022-12-12T00:29:54.841Z,-6.90
2022-12-12T00:32:21.833Z,-7.00
2022-12-12T00:34:49.472Z,-7.00
2022-12-12T00:37:16.390Z,-7.10
2022-12-12T00:39:43.304Z,-7.10
2022-12-12T00:42:10.106Z,-7.10
2022-12-12T00:44:36.903Z,-7.20
2022-12-12T00:47:03.693Z,-7.10
2022-12-12T00:49:30.547Z,-7.10
2022-12-12T00:51:57.408Z,-7.30
2022-12-12T00:54:24.207Z,-7.20
2022-12-12T00:56:51.028Z,-7.20
2022-12-12T00:59:19.661Z,-7.20
2022-12-12T01:01:46.657Z,-7.20
2022-12-12T01:04:13.725Z,-7.20
2022-12-12T01:06:40.594Z,-7.20
2022-12-12T01:09:07.447Z,-7.20
2022-12-12T01:11:34.349Z,-7.30
2022-12-12T01:14:01.308Z,-7.30
2022-12-12T01:16:28.867Z,-7.30
2022-12-12T01:18:58.681Z,-7.30
2022-12-12T01:21:25.538Z,-7.40
2022-12-12T01:23:52.332Z,-7.40
2022-12-12T01:26:21.294Z,-7.40
2022-12-12T01:28:48.210Z,-7.50
2022-12-12T01:31:15.416Z,-7.50
2022-12-12T01:33:46.217Z,-7.40
2022-12-12T01:36:18.321Z,-7.40
2022-12-12T01:38:46.046Z,-7.40
2022-12-12T01:41:13.083Z,-7.40
2022-12-12T01:43:39.922Z,-7.40
2022-12-12T01:46:08.623Z,-7.50
2022-12-12T01:48:37.260Z,-7.40
2022-12-12T01:51:09.602Z,-6.90
2022-12-12T01:53:36.565Z,-7.40
2022-12-12T01:56:04.948Z,-7.40
2022-12-12T01:58:31.847Z,-7.30
2022-12-12T02:00:58.715Z,-7.30
2022-12-12T02:03:25.878Z,-7.30
2022-12-12T02:05:55.239Z,-7.30
2022-12-12T02:08:22.283Z,-7.30
2022-12-12T02:10:49.507Z,-7.30
2022-12-12T02:13:23.816Z,-7.30
2022-12-12T02:16:02.820Z,-7.40
2022-12-12T02:18:52.977Z,-7.40
2022-12-12T02:21:25.516Z,-7.40
2022-12-12T02:24:29.782Z,-7.40
2022-12-12T02:27:17.266Z,-7.50
2022-12-12T02:30:05.762Z,-7.40
2022-12-12T02:32:42.548Z,-7.40
2022-12-12T02:35:35.450Z,-7.50
2022-12-12T02:38:26.256Z,-7.40
2022-12-12T02:41:04.845Z,-7.50
2022-12-12T02:43:53.551Z,-7.50
2022-12-12T02:46:29.668Z,-7.50
2022-12-12T02:49:17.419Z,-7.50
2022-12-12T02:51:44.286Z,-7.50
2022-12-12T02:54:14.678Z,-7.50
2022-12-12T02:56:47.377Z,-7.50
2022-12-12T02:59:17.746Z,-7.40
2022-12-12T03:02:01.489Z,-7.40
2022-12-12T03:05:07.048Z,-7.40
2022-12-12T03:07:50.120Z,-7.40
2022-12-12T03:10:35.721Z,-7.40
2022-12-12T03:13:25.048Z,-7.40
2022-12-12T03:15:58.768Z,-7.40
2022-12-12T03:18:28.625Z,-7.40
2022-12-12T03:21:27.437Z,-7.40
2022-12-12T03:23:56.691Z,-7.40
2022-12-12T03:26:44.153Z,-7.40
2022-12-12T03:29:15.580Z,-7.40
2022-12-12T03:31:45.089Z,-7.30
2022-12-12T03:34:39.930Z,-7.30
2022-12-12T03:37:16.264Z,-7.40
2022-12-12T03:39:47.067Z,-7.30
2022-12-12T03:42:21.882Z,-7.30
2022-12-12T03:44:51.985Z,-7.40
2022-12-12T03:47:51.759Z,-7.40
2022-12-12T03:50:26.454Z,-7.40
2022-12-12T03:52:55.430Z,-7.40
2022-12-12T03:55:42.053Z,-7.30
2022-12-12T03:58:20.039Z,-7.30
2022-12-12T04:00:48.936Z,-7.30
2022-12-12T04:03:18.536Z,-7.40
2022-12-12T04:06:23.697Z,-7.40
2022-12-12T04:09:09.133Z,-7.40
2022-12-12T04:11:58.497Z,-7.40
2022-12-12T04:14:41.916Z,-7.50
2022-12-12T04:17:13.232Z,-7.30
2022-12-12T04:20:35.724Z,-7.40
2022-12-12T04:23:17.237Z,-7.40
2022-12-12T04:26:03.982Z,-7.40
2022-12-12T04:28:30.778Z,-7.40
2022-12-12T04:30:57.655Z,-7.50
2022-12-12T04:33:24.417Z,-7.40
2022-12-12T04:35:51.169Z,-7.40
2022-12-12T04:38:19.365Z,-7.50
2022-12-12T04:40:48.010Z,-7.40
2022-12-12T04:43:35.133Z,-7.50
2022-12-12T04:46:04.993Z,-7.50
2022-12-12T04:48:38.579Z,-7.50
2022-12-12T04:51:06.439Z,-7.60
2022-12-12T04:53:35.227Z,-7.60
2022-12-12T04:56:04.174Z,-7.60
2022-12-12T04:58:30.927Z,-7.60
2022-12-12T05:00:59.895Z,-7.60
2022-12-12T05:03:35.148Z,-7.70
2022-12-12T05:06:05.276Z,-7.70
2022-12-12T05:08:37.516Z,-7.70
2022-12-12T05:11:05.758Z,-7.70
2022-12-12T05:13:37.444Z,-7.80
2022-12-12T05:16:10.412Z,-7.90
2022-12-12T05:18:37.171Z,-7.80
2022-12-12T05:21:04.091Z,-7.90
2022-12-12T05:23:34.568Z,-7.90
2022-12-12T05:26:07.464Z,-7.90
2022-12-12T05:28:34.318Z,-7.80
2022-12-12T05:31:01.212Z,-8.00
2022-12-12T05:33:28.065Z,-7.90
2022-12-12T05:35:54.834Z,-7.80
2022-12-12T05:38:21.587Z,-7.90
2022-12-12T05:40:48.812Z,-7.90
2022-12-12T05:43:15.583Z,-8.00
2022-12-12T05:45:42.511Z,-8.00
2022-12-12T05:48:09.337Z,-8.00
2022-12-12T05:50:36.191Z,-8.00
2022-12-12T05:53:03.011Z,-8.00
2022-12-12T05:55:29.789Z,-8.00
2022-12-12T05:57:56.534Z,-7.90
2022-12-12T06:00:23.759Z,-7.90
2022-12-12T06:02:50.875Z,-7.90
2022-12-12T06:05:17.818Z,-7.90
2022-12-12T06:07:44.568Z,-7.80
2022-12-12T06:10:11.312Z,-7.80
2022-12-12T06:12:38.432Z,-7.80
2022-12-12T06:15:05.812Z,-7.80
2022-12-12T06:17:33.580Z,-7.80
2022-12-12T06:20:00.584Z,-7.80
2022-12-12T06:22:27.404Z,-7.80
2022-12-12T06:24:54.178Z,-7.90
2022-12-12T06:27:20.985Z,-8.00
2022-12-12T06:29:48.209Z,-7.90
2022-12-12T06:32:14.968Z,-7.90
2022-12-12T06:34:41.809Z,-7.90
2022-12-12T06:37:12.897Z,-7.90
2022-12-12T06:39:44.005Z,-7.90
2022-12-12T06:42:10.814Z,-7.80
2022-12-12T06:44:37.587Z,-7.80
2022-12-12T06:47:04.423Z,-7.80
2022-12-12T06:49:31.204Z,-7.80
2022-12-12T06:51:57.975Z,-7.80
2022-12-12T06:54:26.264Z,-7.80
2022-12-12T06:56:53.032Z,-7.90
2022-12-12T06:59:19.756Z,-7.80
2022-12-12T07:01:46.931Z,-7.80
2022-12-12T07:04:14.143Z,-7.80
2022-12-12T07:06:40.967Z,-7.80
2022-12-12T07:09:08.319Z,-7.80
2022-12-12T07:11:35.144Z,-7.80
2022-12-12T07:14:03.832Z,-7.90
2022-12-12T07:16:30.621Z,-7.80
2022-12-12T07:18:57.381Z,-7.80
2022-12-12T07:21:24.145Z,-7.80
2022-12-12T07:23:50.884Z,-7.80
2022-12-12T07:26:21.658Z,-7.80
2022-12-12T07:28:48.804Z,-7.90
2022-12-12T07:31:17.379Z,-8.00
2022-12-12T07:33:44.948Z,-7.90
2022-12-12T07:36:15.040Z,-7.80
2022-12-12T07:38:42.064Z,-7.70
2022-12-12T07:41:10.815Z,-7.70
2022-12-12T07:43:41.488Z,-7.60
2022-12-12T07:46:11.107Z,-9.00
2022-12-12T07:48:37.956Z,-7.50
2022-12-12T07:51:04.954Z,-7.50
2022-12-12T07:53:31.867Z,-7.40
2022-12-12T07:55:58.648Z,-7.40
2022-12-12T07:58:25.431Z,-7.40
2022-12-12T08:00:52.260Z,-7.40
2022-12-12T08:03:19.061Z,-7.30
2022-12-12T08:05:45.901Z,-7.30
2022-12-12T08:08:21.634Z,-7.30
2022-12-12T08:10:48.453Z,-7.30
2022-12-12T08:13:15.259Z,-7.20
2022-12-12T08:15:44.256Z,-7.20
2022-12-12T08:18:11.020Z,-7.10
2022-12-12T08:20:40.099Z,-7.20
2022-12-12T08:23:07.530Z,-7.20
2022-12-12T08:25:37.423Z,-7.10
2022-12-12T08:28:04.431Z,-7.10
2022-12-12T08:30:31.221Z,-7.10
2022-12-12T08:32:58.020Z,-7.30
2022-12-12T08:35:24.867Z,-7.10
2022-12-12T08:37:51.725Z,-7.10
2022-12-12T08:40:18.532Z,-7.10
2022-12-12T08:42:45.671Z,-7.10
2022-12-12T08:45:12.676Z,-7.10
2022-12-12T08:47:39.719Z,-7.10
2022-12-12T08:50:06.824Z,-7.10
2022-12-12T08:52:33.635Z,-7.10
2022-12-12T08:55:01.026Z,-7.10
2022-12-12T08:57:27.870Z,-7.00
2022-12-12T08:59:54.695Z,-7.00
2022-12-12T09:02:21.579Z,-7.00
2022-12-12T09:04:48.431Z,-7.00
2022-12-12T09:07:15.221Z,-6.90
2022-12-12T09:09:42.009Z,-6.90
2022-12-12T09:12:09.229Z,-6.90
2022-12-12T09:14:36.072Z,-6.90
2022-12-12T09:17:02.847Z,-6.40
2022-12-12T09:19:29.647Z,-7.00
2022-12-12T09:21:56.986Z,-6.90
2022-12-12T09:24:25.476Z,-6.90
2022-12-12T09:26:52.451Z,-5.90
2022-12-12T09:29:19.264Z,-6.70
2022-12-12T09:31:46.192Z,-6.70
2022-12-12T09:34:13.034Z,-6.70
2022-12-12T09:36:39.834Z,-6.60
2022-12-12T09:39:06.660Z,-6.50
2022-12-12T09:41:33.509Z,-6.30
2022-12-12T09:44:05.103Z,-6.20
2022-12-12T09:46:31.900Z,-6.00
2022-12-12T09:49:07.647Z,-5.90
2022-12-12T09:51:34.963Z,-5.70
2022-12-12T09:54:01.777Z,-5.60
2022-12-12T09:56:41.168Z,-5.50
2022-12-12T09:59:16.210Z,-2.70
2022-12-12T10:01:49.064Z,-5.30
2022-12-12T10:04:47.779Z,-5.20
2022-12-12T10:07:20.979Z,-5.10
2022-12-12T10:09:57.399Z,-5.00
2022-12-12T10:12:24.239Z,-4.90
2022-12-12T10:15:28.924Z,-4.80
2022-12-12T10:17:56.139Z,-4.70
2022-12-12T10:20:25.849Z,-4.70
2022-12-12T10:23:02.891Z,-4.60
2022-12-12T10:25:43.793Z,-4.60
2022-12-12T10:28:13.007Z,-4.60
2022-12-12T10:31:02.006Z,-4.50
2022-12-12T10:34:05.783Z,-4.50
2022-12-12T10:36:44.452Z,-4.40
2022-12-12T10:39:29.911Z,-4.40
2022-12-12T10:42:40.476Z,-4.40
2022-12-12T10:45:25.261Z,-4.30
2022-12-12T10:47:52.060Z,-4.20
2022-12-12T10:50:45.904Z,-4.20
2022-12-12T10:53:12.905Z,-4.10
2022-12-12T10:56:04.095Z,-4.00
2022-12-12T10:58:42.005Z,-4.00
2022-12-12T11:01:28.194Z,-4.00
2022-12-12T11:04:05.631Z,-4.00
2022-12-12T11:06:37.260Z,-3.90
2022-12-12T11:09:22.775Z,-3.80
2022-12-12T11:12:32.196Z,-3.70
2022-12-12T11:15:14.312Z,-3.60
2022-12-12T11:17:41.278Z,-3.60
2022-12-12T11:20:14.297Z,-3.50
2022-12-12T11:22:41.089Z,-3.40
2022-12-12T11:25:22.490Z,-3.30
2022-12-12T11:27:49.270Z,-3.30
2022-12-12T11:30:32.861Z,-3.20
2022-12-12T11:32:59.659Z,-3.20
2022-12-12T11:35:33.689Z,-3.40
2022-12-12T11:38:04.978Z,-3.20
2022-12-12T11:40:33.976Z,-3.20
2022-12-12T11:43:52.661Z,-3.20
2022-12-12T11:50:37.468Z,-4.60
2022-12-12T11:53:05.434Z,-3.30
2022-12-12T11:55:36.677Z,-3.40
2022-12-12T11:58:27.667Z,-3.40
2022-12-12T12:00:58.826Z,-3.40
2022-12-12T12:03:29.791Z,-3.50
2022-12-12T12:06:15.174Z,-3.50
2022-12-12T12:09:08.464Z,-3.40
2022-12-12T12:11:54.825Z,-3.40
2022-12-12T12:14:34.455Z,-3.30
2022-12-12T12:17:04.397Z,-3.30
2022-12-12T12:20:01.026Z,-3.20
2022-12-12T12:22:47.847Z,-3.10
2022-12-12T12:25:29.918Z,-3.00
2022-12-12T12:28:18.431Z,-3.00
2022-12-12T12:31:08.051Z,-2.90
2022-12-12T12:33:45.163Z,-2.80
2022-12-12T12:36:22.622Z,-2.80
2022-12-12T12:39:14.315Z,-2.80
2022-12-12T12:41:59.203Z,-2.70
2022-12-12T12:44:42.775Z,-2.80
2022-12-12T12:47:29.816Z,-2.80
2022-12-12T12:50:03.426Z,-2.80
2022-12-12T12:52:54.656Z,-2.80
2022-12-12T12:55:28.868Z,-2.80
2022-12-12T12:57:55.663Z,-2.80
2022-12-12T13:00:24.628Z,-2.80
2022-12-12T13:03:04.704Z,-2.80
2022-12-12T13:05:41.004Z,-2.80
2022-12-12T13:08:25.043Z,-2.80
2022-12-12T13:10:53.948Z,-1.70
2022-12-12T13:13:29.026Z,-2.90
2022-12-12T13:16:10.751Z,-2.80
2022-12-12T13:18:45.673Z,-2.80
2022-12-12T13:21:30.090Z,-2.90
2022-12-12T13:24:02.770Z,-2.70
2022-12-12T13:26:50.291Z,-2.70
2022-12-12T13:29:37.304Z,-2.60
2022-12-12T13:32:16.219Z,-2.50
2022-12-12T13:34:48.445Z,-2.40
2022-12-12T13:37:17.483Z,-2.30
2022-12-12T13:39:44.402Z,-2.20
2022-12-12T13:42:11.967Z,-2.20
2022-12-12T13:44:46.147Z,-2.10
2022-12-12T13:47:22.114Z,-2.20
2022-12-12T13:50:09.992Z,-2.20
2022-12-12T13:52:43.178Z,-2.20
2022-12-12T13:55:13.081Z,-2.20
2022-12-12T13:58:06.005Z,-2.20
2022-12-12T14:00:39.854Z,-2.20
2022-12-12T14:03:12.863Z,-2.30
2022-12-12T14:05:41.382Z,-2.30
2022-12-12T14:08:28.694Z,-2.40
2022-12-12T14:11:00.733Z,-2.50
2022-12-12T14:13:34.753Z,-2.30
2022-12-12T14:16:26.016Z,-2.30
2022-12-12T14:19:05.318Z,-2.30
2022-12-12T14:21:41.259Z,-2.30
2022-12-12T14:24:32.940Z,-2.30
2022-12-12T14:27:00.732Z,-2.40
2022-12-12T14:29:28.892Z,-2.40
2022-12-12T14:32:12.762Z,-2.40
2022-12-12T14:35:03.885Z,-2.20
2022-12-12T14:37:52.200Z,-2.40
2022-12-12T14:40:21.962Z,-1.40
2022-12-12T14:43:19.248Z,-2.50
2022-12-12T14:45:59.321Z,-2.60
2022-12-12T14:48:30.078Z,-2.50
2022-12-12T14:51:01.292Z,-2.50
2022-12-12T14:53:37.171Z,-2.60
2022-12-12T14:56:07.277Z,-2.50
2022-12-12T14:58:41.519Z,0.00
2022-12-12T15:01:08.803Z,-2.60
2022-12-12T15:03:39.337Z,-2.60
2022-12-12T15:06:24.643Z,-2.70
2022-12-12T15:08:52.314Z,-0.60
2022-12-12T15:11:27.965Z,-2.80
2022-12-12T15:13:58.784Z,-2.90
2022-12-12T15:16:29.484Z,-2.90
2022-12-12T15:18:56.423Z,-3.00
2022-12-12T15:21:23.235Z,-3.00
2022-12-12T15:23:50.041Z,-3.20
2022-12-12T15:26:19.039Z,-3.20
2022-12-12T15:28:46.503Z,-3.20
2022-12-12T15:31:17.195Z,-3.30
2022-12-12T15:33:44.836Z,-2.00
2022-12-12T15:36:26.431Z,-3.50
2022-12-12T15:39:13.050Z,-3.50
2022-12-12T15:41:40.184Z,-1.20
2022-12-12T15:44:06.950Z,-3.70
2022-12-12T15:46:33.751Z,-3.80
2022-12-12T15:49:00.570Z,-3.80
2022-12-12T15:51:32.088Z,-3.90
2022-12-12T15:54:05.375Z,-4.00
2022-12-12T15:56:32.131Z,-3.50
2022-12-12T15:59:04.903Z,-4.10
2022-12-12T16:01:31.762Z,-4.20
2022-12-12T16:04:18.850Z,-4.40
2022-12-12T16:06:46.335Z,-4.30
2022-12-12T16:09:17.797Z,-4.40
2022-12-12T16:11:47.649Z,-4.50
2022-12-12T16:14:39.626Z,-4.50
2022-12-12T16:17:14.675Z,-4.60
2022-12-12T16:20:00.641Z,-4.60
2022-12-12T16:22:37.691Z,-5.70
2022-12-12T16:25:24.903Z,-4.80
2022-12-12T16:28:09.950Z,-4.90
2022-12-12T16:30:39.463Z,-4.90
2022-12-12T16:33:13.798Z,-5.00
2022-12-12T16:35:40.541Z,-5.10
2022-12-12T16:38:13.580Z,-5.10
2022-12-12T16:40:40.284Z,-5.30
2022-12-12T16:43:11.403Z,-3.80
2022-12-12T16:45:38.733Z,-5.40
2022-12-12T16:48:24.245Z,-5.40
2022-12-12T16:50:52.108Z,-5.40
2022-12-12T16:53:19.152Z,-5.30
2022-12-12T16:55:47.752Z,-5.30
2022-12-12T16:58:14.750Z,-5.30
2022-12-12T17:00:41.615Z,-5.30
2022-12-12T17:03:08.464Z,-5.50
2022-12-12T17:05:35.370Z,-6.60
2022-12-12T17:08:02.782Z,-5.40
2022-12-12T17:10:31.522Z,-5.40
2022-12-12T17:12:58.322Z,-5.50
2022-12-12T17:15:29.545Z,-5.50
2022-12-12T17:17:56.548Z,-5.50
2022-12-12T17:20:23.817Z,-5.50
2022-12-12T17:22:51.980Z,-5.50
2022-12-12T17:25:19.143Z,-5.50
2022-12-12T17:27:45.925Z,-5.30
2022-12-12T17:30:13.287Z,-5.60
2022-12-12T17:32:40.608Z,-5.70
2022-12-12T17:35:07.807Z,-5.50
2022-12-12T17:37:34.769Z,-5.80
2022-12-12T17:40:02.016Z,-5.80
2022-12-12T17:42:32.052Z,-5.80
2022-12-12T17:44:59.279Z,-5.90
2022-12-12T17:47:26.257Z,-5.90
2022-12-12T17:49:53.072Z,-5.90
2022-12-12T17:52:19.861Z,-5.80
2022-12-12T17:55:52.164Z,-5.80
2022-12-12T17:57:35.221Z,-5.80
2022-12-12T18:00:02.136Z,-5.80
2022-12-12T18:02:39.952Z,-5.90
2022-12-12T18:05:09.598Z,-5.90
2022-12-12T18:07:37.011Z,-5.90
2022-12-12T18:10:04.274Z,-6.00
2022-12-12T18:12:31.174Z,-6.00
2022-12-12T18:14:57.889Z,-6.00
2022-12-12T18:17:24.691Z,-6.10
2022-12-12T18:19:51.456Z,-6.10
2022-12-12T18:22:18.228Z,-6.20
2022-12-12T18:24:44.977Z,-6.30
2022-12-12T18:27:12.171Z,-6.30
2022-12-12T18:29:38.902Z,-6.40
2022-12-12T18:32:05.815Z,-6.50
2022-12-12T18:38:54.210Z,-6.50
2022-12-12T18:41:21.076Z,-6.50
2022-12-12T18:43:47.952Z,-6.40
2022-12-12T18:46:16.574Z,-6.50
2022-12-12T18:48:44.597Z,-6.70
2022-12-12T18:51:19.254Z,-6.50
2022-12-12T18:53:46.560Z,-6.50
2022-12-12T18:56:15.163Z,-8.20
2022-12-12T18:58:41.954Z,-6.50
2022-12-12T19:01:16.965Z,-6.60
2022-12-12T19:03:44.778Z,-6.80
2022-12-12T19:06:13.199Z,-6.70
2022-12-12T19:08:41.731Z,-6.70
2022-12-12T19:11:08.923Z,-6.80
2022-12-12T19:13:35.878Z,-6.80
2022-12-12T19:16:11.341Z,-6.80
2022-12-12T19:18:38.460Z,-6.80
2022-12-12T19:21:12.844Z,-6.90
2022-12-12T19:23:42.838Z,-6.90
2022-12-12T19:26:30.695Z,-6.90
2022-12-12T19:29:01.702Z,-7.00
2022-12-12T19:31:28.592Z,-7.00
2022-12-12T19:33:56.768Z,-7.10
2022-12-12T19:36:25.176Z,-4.80
2022-12-12T19:38:52.186Z,-7.00
2022-12-12T19:41:20.400Z,-7.00
2022-12-12T19:43:47.657Z,-7.00
2022-12-12T19:46:19.432Z,-6.90
2022-12-12T19:48:46.413Z,-7.10
2022-12-12T19:51:17.519Z,-6.90
2022-12-12T19:53:45.659Z,-6.90
2022-12-12T19:56:16.550Z,-7.00
2022-12-12T19:58:43.467Z,-7.00
2022-12-12T20:01:14.789Z,-7.00
2022-12-12T20:03:41.919Z,-6.90
2022-12-12T20:06:09.856Z,-6.90
2022-12-12T20:08:38.197Z,-7.00
2022-12-12T20:11:15.601Z,-7.10
2022-12-12T20:13:42.655Z,-7.10
2022-12-12T20:16:13.655Z,-7.00
2022-12-12T20:18:41.347Z,-7.00
2022-12-12T20:21:09.098Z,-7.00
2022-12-12T20:24:01.619Z,-7.00
2022-12-12T20:26:30.497Z,-6.90
2022-12-12T20:28:59.445Z,-6.90
2022-12-12T20:31:37.596Z,-7.00
2022-12-12T20:34:04.583Z,-7.00
2022-12-12T20:36:32.994Z,-7.00
2022-12-12T20:39:01.053Z,-7.00
2022-12-12T20:41:38.555Z,-7.00
2022-12-12T20:44:06.020Z,-7.10
2022-12-12T20:46:34.667Z,-7.40
2022-12-12T20:49:02.709Z,-7.10
2022-12-12T20:54:22.155Z,-7.10
2022-12-12T20:56:49.444Z,-7.30
2022-12-12T20:59:16.314Z,-7.20
2022-12-12T21:01:43.119Z,-5.70
2022-12-12T21:04:10.063Z,-7.20
2022-12-12T21:06:40.421Z,-7.20
2022-12-12T21:09:09.504Z,-7.30
2022-12-12T21:11:39.704Z,-7.30
2022-12-12T21:14:07.139Z,-7.30
2022-12-12T21:16:35.720Z,-7.30
2022-12-12T21:19:06.321Z,-7.30
2022-12-12T21:21:33.175Z,-7.40
2022-12-12T21:24:00.234Z,-7.40
2022-12-12T21:26:29.923Z,-7.40
2022-12-12T21:28:57.670Z,-7.40
2022-12-12T21:31:29.789Z,-7.40
2022-12-12T21:33:56.866Z,-7.50
2022-12-12T21:36:23.964Z,-7.50
2022-12-12T21:38:51.136Z,-7.20
2022-12-12T21:41:19.324Z,-7.50
2022-12-12T21:43:46.212Z,-7.50
2022-12-12T21:46:14.891Z,-7.60
2022-12-12T21:48:41.793Z,-7.70
2022-12-12T21:51:10.689Z,-7.70
2022-12-12T21:53:38.067Z,-7.70
2022-12-12T21:56:15.757Z,-7.80
2022-12-12T21:58:43.172Z,-7.70
2022-12-12T22:01:10.914Z,-7.80
2022-12-12T22:03:37.855Z,-7.80
2022-12-12T22:06:18.825Z,-7.80
2022-12-12T22:08:46.578Z,-7.80
2022-12-12T22:11:14.134Z,-7.80
2022-12-12T22:14:00.941Z,-7.90
2022-12-12T22:16:33.329Z,-7.90
2022-12-12T22:19:05.529Z,-7.90
2022-12-12T22:21:33.066Z,-7.90
2022-12-12T22:24:00.163Z,-7.90
2022-12-12T22:26:34.775Z,-8.00
2022-12-12T22:29:03.627Z,-7.90
2022-12-12T22:31:32.204Z,-7.90
2022-12-12T22:34:00.673Z,-7.90
2022-12-12T22:36:32.004Z,-8.00
2022-12-12T22:38:59.147Z,-8.20
2022-12-12T22:41:26.709Z,-9.70
2022-12-12T22:43:58.194Z,-8.00
2022-12-12T22:46:25.368Z,-8.00
2022-12-12T22:48:53.070Z,-8.00
2022-12-12T22:51:22.707Z,-8.00
2022-12-12T22:53:49.651Z,-8.00
2022-12-12T22:56:19.033Z,-8.00
2022-12-12T22:58:45.830Z,-8.10
2022-12-12T23:01:17.904Z,-8.10
2022-12-12T23:03:44.998Z,-8.10
2022-12-12T23:06:12.706Z,-8.20
2022-12-12T23:08:40.266Z,-8.30
2022-12-12T23:11:14.068Z,-8.30
2022-12-12T23:13:44.886Z,-8.30
2022-12-12T23:16:18.748Z,-8.30
2022-12-12T23:18:45.892Z,-8.30
2022-12-12T23:21:16.947Z,-8.30
2022-12-12T23:23:44.703Z,-8.30
2022-12-12T23:26:16.166Z,-8.30
2022-12-12T23:28:43.318Z,-8.30
2022-12-12T23:31:18.706Z,-8.30
2022-12-12T23:33:48.788Z,-8.30
2022-12-12T23:36:15.796Z,-8.30
2022-12-12T23:38:43.616Z,-8.40
2022-12-12T23:41:11.907Z,-8.40
2022-12-12T23:43:39.726Z,-8.40
2022-12-12T23:46:28.197Z,-8.40
2022-12-12T23:48:55.412Z,-8.40
2022-12-12T23:51:23.924Z,-8.40
2022-12-12T23:53:50.790Z,-8.40
2022-12-12T23:56:17.570Z,-8.50
2022-12-12T23:58:44.788Z,-8.50
